Time;durP1;ratioP1;P1;durP2;ratioP2;P2;SDS_P1;SDS_P2;PMS_P1;PMS_P2;Temp;Humidity;BMP_temperature;BMP_pressure;BME280_temperature;BME280_humidity;BME280_pressure;Samples;Min_cycle;Max_cycle;Signal;HPM_P1;HPM_P2
2024/04/17 00:02:48;;;;;;;6.62;2.12;;;;;;;20.99;49.46;99855.99;2341334;76;50367;-77
2024/04/17 00:05:50;;;;;;;9.48;2.22;;;;;;;20.99;49.45;99851.95;2341041;76;50386;-78
2024/04/17 00:08:52;;;;;;;10.40;2.58;;;;;;;20.99;49.43;99850.61;2286707;77;50039;-78
2024/04/17 00:11:54;;;;;;;7.72;2.25;;;;;;;20.99;49.43;99847.92;2301934;77;51551;-78
2024/04/17 00:14:56;;;;;;;9.88;2.50;;;;;;;20.97;49.39;99848.66;2301846;77;51542;-78
2024/04/17 00:17:59;;;;;;;9.08;2.35;;;;;;;20.97;49.38;99851.34;2270745;77;52345;-78
2024/04/17 00:21:01;;;;;;;9.68;2.50;;;;;;;20.97;49.36;99855.38;2301846;77;51524;-77
2024/04/17 00:24:03;;;;;;;7.67;2.05;;;;;;;20.97;49.38;99862.10;2270655;77;49568;-76
2024/04/17 00:27:05;;;;;;;6.95;2.45;;;;;;;20.97;49.35;99865.31;2295917;77;51504;-77
2024/04/17 00:30:08;;;;;;;5.03;2.08;;;;;;;20.97;49.35;99874.20;2270763;77;50214;-77
2024/04/17 00:33:10;;;;;;;5.80;1.90;;;;;;;20.97;49.35;99864.80;2270673;77;52544;-78
2024/04/17 00:36:12;;;;;;;5.42;2.27;;;;;;;20.97;49.33;99865.31;2295841;77;50618;-78
2024/04/17 00:39:14;;;;;;;8.93;2.05;;;;;;;20.96;49.34;99864.50;2270826;77;51428;-78
2024/04/17 00:42:17;;;;;;;8.23;2.00;;;;;;;20.96;49.28;99874.41;2273769;76;50786;-77
2024/04/17 00:45:19;;;;;;;3.75;1.87;;;;;;;20.96;49.28;99881.98;2267929;78;51576;-77
2024/04/17 00:48:21;;;;;;;6.55;1.82;;;;;;;20.95;49.27;99873.59;2244734;78;50959;-77
2024/04/17 00:51:23;;;;;;;4.87;2.40;;;;;;;20.94;49.27;99877.34;2268206;77;50383;-76
2024/04/17 00:54:25;;;;;;;5.62;2.08;;;;;;;20.94;49.28;99886.75;2268217;78;50245;-77
2024/04/17 00:57:28;;;;;;;4.30;1.77;;;;;;;20.95;49.22;99890.25;2244704;78;50084;-77
2024/04/17 01:00:30;;;;;;;5.70;2.30;;;;;;;20.93;49.21;99883.73;2268280;78;50691;-77
2024/04/17 01:03:33;;;;;;;4.47;1.95;;;;;;;20.95;49.18;99886.22;2268277;78;51567;-77
2024/04/17 01:06:35;;;;;;;5.80;2.20;;;;;;;20.94;49.16;99876.52;2269715;77;50140;-78
2024/04/17 01:09:37;;;;;;;3.87;1.67;;;;;;;20.94;49.13;99880.02;2268173;78;50695;-78
2024/04/17 01:12:39;;;;;;;6.17;2.00;;;;;;;20.93;49.10;99886.95;2253424;75;50123;-78
2024/04/17 01:15:42;;;;;;;6.90;2.37;;;;;;;20.94;49.13;99881.89;2359406;75;51501;-78
2024/04/17 01:18:44;;;;;;;6.85;2.10;;;;;;;20.93;49.06;99885.08;2358150;75;51528;-77
2024/04/17 01:21:47;;;;;;;6.05;2.02;;;;;;;20.92;49.07;99884.79;2332608;75;50127;-77
2024/04/17 01:24:49;;;;;;;9.10;2.05;;;;;;;20.91;49.13;99893.91;2359784;75;50725;-77
2024/04/17 01:27:51;;;;;;;7.42;2.35;;;;;;;20.92;49.41;99896.89;2358116;75;51526;-77
2024/04/17 01:30:53;;;;;;;4.75;1.85;;;;;;;20.92;49.53;99894.73;2359766;75;51474;-78
2024/04/17 01:33:55;;;;;;;5.80;1.90;;;;;;;20.92;49.78;99895.55;2356484;75;51425;-77
2024/04/17 01:36:57;;;;;;;8.35;2.00;;;;;;;20.91;49.56;99896.59;2270074;77;51317;-78
2024/04/17 01:40:00;;;;;;;5.85;2.02;;;;;;;20.92;49.55;99895.55;2268363;78;50376;-77
2024/04/17 01:43:02;;;;;;;5.42;1.98;;;;;;;20.92;49.51;99894.20;2268377;77;50339;-77
2024/04/17 01:46:04;;;;;;;7.12;1.90;;;;;;;20.92;49.48;99898.23;2244686;78;50089;-78
2024/04/17 01:49:06;;;;;;;5.80;1.80;;;;;;;20.91;49.44;99899.28;2244836;78;51517;-77
2024/04/17 01:52:09;;;;;;;7.28;1.92;;;;;;;20.92;49.39;99904.14;2308504;75;50353;-78
2024/04/17 01:55:11;;;;;;;7.60;1.90;;;;;;;20.91;49.36;99896.59;2316087;75;50302;-78
2024/04/17 01:58:13;;;;;;;7.75;2.00;;;;;;;20.91;49.33;99896.59;2307848;75;50370;-78
2024/04/17 02:01:15;;;;;;;6.97;1.70;;;;;;;20.90;49.31;99893.59;2280127;76;50081;-78
2024/04/17 02:04:18;;;;;;;3.58;1.85;;;;;;;20.90;49.32;99894.94;2314575;76;51555;-78
2024/04/17 02:07:20;;;;;;;9.63;2.10;;;;;;;20.90;49.25;99905.69;2317139;75;50675;-78
2024/04/17 02:10:22;;;;;;;4.25;1.70;;;;;;;20.90;49.25;99903.00;2276356;75;49742;-78
2024/04/17 02:13:25;;;;;;;8.60;2.45;;;;;;;20.90;49.26;99900.31;2299143;75;50688;-78
2024/04/17 02:16:27;;;;;;;6.20;2.17;;;;;;;20.90;49.24;99904.88;2312865;75;51435;-78
2024/04/17 02:19:29;;;;;;;6.22;2.00;;;;;;;20.90;49.23;99908.91;2329421;75;51592;-78
2024/04/17 02:22:31;;;;;;;7.45;1.85;;;;;;;20.90;49.19;99907.03;2293265;76;50687;-78
2024/04/17 02:25:34;;;;;;;4.00;1.70;;;;;;;20.89;49.15;99905.40;2294097;76;50963;-78
2024/04/17 02:28:36;;;;;;;5.53;1.75;;;;;;;20.88;49.13;99899.70;2307647;75;51499;-78
2024/04/17 02:31:38;;;;;;;8.15;1.98;;;;;;;20.87;49.15;99910.16;2297911;75;51555;-78
2024/04/17 02:34:40;;;;;;;5.42;1.60;;;;;;;20.88;49.12;99902.38;2265662;75;51266;-78
2024/04/17 02:37:42;;;;;;;4.70;1.57;;;;;;;20.88;49.09;99913.14;2308613;75;50422;-78
2024/04/17 02:40:44;;;;;;;6.22;1.90;;;;;;;20.87;49.08;99911.51;2292751;76;50372;-78
2024/04/17 02:43:47;;;;;;;6.05;2.02;;;;;;;20.88;49.04;99913.14;2303192;75;50699;-78
2024/04/17 02:46:49;;;;;;;6.55;1.80;;;;;;;20.87;49.06;99924.42;2311923;75;51562;-78
2024/04/17 02:49:51;;;;;;;5.12;1.72;;;;;;;20.86;49.03;99923.31;2301248;76;49887;-77
2024/04/17 02:52:53;;;;;;;6.22;2.08;;;;;;;20.86;49.01;99926.00;2317713;75;51429;-77
2024/04/17 02:55:55;;;;;;;5.42;1.55;;;;;;;20.86;49.00;99920.62;2317803;76;51640;-78
2024/04/17 02:58:58;;;;;;;3.50;1.35;;;;;;;20.84;48.90;99925.39;2301547;76;49544;-78
2024/04/17 03:02:00;;;;;;;4.03;1.60;;;;;;;20.84;48.92;99925.39;2344216;75;50395;-78
2024/04/17 03:05:02;;;;;;;4.00;1.50;;;;;;;20.84;48.91;99930.77;2268515;76;50265;-78
2024/04/17 03:08:04;;;;;;;3.98;1.55;;;;;;;20.83;48.89;99935.33;2321030;76;50371;-78
2024/04/17 03:11:07;;;;;;;7.47;1.57;;;;;;;20.82;48.84;99929.62;2294555;76;51423;-78
2024/04/17 03:14:09;;;;;;;5.72;1.42;;;;;;;20.82;48.85;99936.88;2289907;75;50094;-78
2024/04/17 03:17:11;;;;;;;7.20;1.75;;;;;;;20.82;48.79;99938.22;2310425;75;51606;-78
2024/04/17 03:20:13;;;;;;;6.00;1.70;;;;;;;20.82;48.75;99944.41;2334274;75;51631;-78
2024/04/17 03:23:15;;;;;;;4.25;1.62;;;;;;;20.82;48.70;99947.10;2315526;75;52841;-78
2024/04/17 03:26:18;;;;;;;7.20;1.80;;;;;;;20.83;48.72;99946.58;2271707;75;51492;-77
2024/04/17 03:29:20;;;;;;;4.20;1.67;;;;;;;20.80;48.76;99950.52;2319340;75;50058;-78
2024/04/17 03:32:22;;;;;;;7.05;1.52;;;;;;;20.80;48.80;99955.08;2313788;76;50702;-78
2024/04/17 03:35:25;;;;;;;3.58;1.40;;;;;;;20.81;48.79;99958.09;2275314;76;51575;-77
2024/04/17 03:38:27;;;;;;;2.47;1.30;;;;;;;20.81;48.75;99959.44;2293064;77;51256;-78
2024/04/17 03:41:29;;;;;;;5.22;1.57;;;;;;;20.81;48.80;99958.09;2290693;76;51521;-77
2024/04/17 03:44:32;;;;;;;4.90;1.80;;;;;;;20.81;48.79;99960.78;2309624;76;51517;-77
2024/04/17 03:47:34;;;;;;;7.72;1.40;;;;;;;20.80;48.72;99964.48;2307642;76;49612;-77
2024/04/17 03:50:36;;;;;;;7.15;1.55;;;;;;;20.80;48.71;99969.34;2341372;76;50238;-77
2024/04/17 03:53:38;;;;;;;6.55;1.87;;;;;;;20.80;48.64;99972.55;2341273;76;50364;-78
2024/04/17 03:56:40;;;;;;;2.77;1.22;;;;;;;20.80;48.67;99980.63;2366136;73;50725;-78
2024/04/17 03:59:42;;;;;;;7.53;1.60;;;;;;;20.79;48.64;99986.52;2323099;75;51531;-77
2024/04/17 04:02:45;;;;;;;5.95;1.45;;;;;;;20.78;48.61;99982.20;2296260;76;50081;-77
2024/04/17 04:05:47;;;;;;;3.15;1.70;;;;;;;20.79;48.59;99986.52;2333004;76;51485;-78
2024/04/17 04:08:49;;;;;;;4.95;1.47;;;;;;;20.79;48.53;99989.73;2333271;76;51605;-78
2024/04/17 04:11:51;;;;;;;5.35;1.87;;;;;;;20.78;48.47;99993.45;2294229;76;49451;-77
2024/04/17 04:14:53;;;;;;;4.90;1.40;;;;;;;20.79;48.44;99999.15;2312028;77;50327;-77
2024/04/17 04:17:56;;;;;;;2.70;1.20;;;;;;;20.78;48.43;99992.10;2311931;77;50705;-77
2024/04/17 04:20:58;;;;;;;4.45;1.20;;;;;;;20.78;48.40;99999.67;2342277;75;50734;-78
2024/04/17 04:24:00;;;;;;;4.40;1.32;;;;;;;20.79;48.37;99996.46;2320613;75;51614;-78
2024/04/17 04:27:02;;;;;;;4.42;1.40;;;;;;;20.77;48.39;99998.00;2283768;77;50990;-78
2024/04/17 04:30:05;;;;;;;4.17;1.60;;;;;;;20.78;48.28;100002.86;2253386;77;51502;-78
2024/04/17 04:33:08;;;;;;;5.10;1.37;;;;;;;20.77;48.36;100001.22;2253513;77;50278;-78
2024/04/17 04:36:10;;;;;;;3.55;1.55;;;;;;;20.78;48.30;99998.82;2299385;75;50955;-78
2024/04/17 04:39:13;;;;;;;5.08;1.42;;;;;;;20.77;48.29;100007.94;2311265;76;51501;-78
2024/04/17 04:42:15;;;;;;;4.35;1.17;;;;;;;20.76;48.38;100004.43;2291313;77;51516;-77
2024/04/17 04:45:17;;;;;;;6.53;1.50;;;;;;;20.76;48.38;100002.27;2268186;78;50330;-78
2024/04/17 04:48:19;;;;;;;3.95;1.27;;;;;;;20.76;48.53;100006.30;2245231;78;50378;-78
2024/04/17 04:51:21;;;;;;;4.47;1.60;;;;;;;20.76;48.50;100014.37;2258880;75;50072;-78
2024/04/17 04:54:23;;;;;;;5.83;1.87;;;;;;;20.76;48.53;100018.40;2312492;75;50758;-78
2024/04/17 04:57:26;;;;;;;7.47;1.32;;;;;;;20.74;48.64;100023.98;2308946;76;51532;-77
2024/04/17 05:00:28;;;;;;;4.28;1.30;;;;;;;20.75;48.56;100030.17;2270096;77;52519;-77
2024/04/17 05:03:30;;;;;;;4.10;1.55;;;;;;;20.75;48.51;100027.48;2268374;78;51505;-76
2024/04/17 05:06:34;;;;;;;19.35;2.22;;;;;;;20.74;48.54;100033.39;2292319;76;50049;-77
2024/04/17 05:09:36;;;;;;;8.38;1.90;;;;;;;20.76;50.16;100038.56;2296160;76;51534;-79
2024/04/17 05:12:39;;;;;;;7.33;2.00;;;;;;;20.77;50.27;100041.02;2322697;76;51531;-77
2024/04/17 05:15:41;;;;;;;11.78;2.30;;;;;;;20.80;50.21;100045.15;2253762;75;52467;-77
2024/04/17 05:18:43;;;;;;;7.50;2.17;;;;;;;20.79;50.16;100035.45;2317074;76;50720;-75
2024/04/17 05:21:46;;;;;;;11.48;2.10;;;;;;;20.81;50.32;100038.75;2318336;76;51368;-76
2024/04/17 05:24:48;;;;;;;17.12;2.50;;;;;;;20.83;50.28;100039.34;2293359;76;49617;-77
2024/04/17 05:27:50;;;;;;;18.73;2.85;;;;;;;20.84;50.43;100042.36;2318090;75;50370;-78
2024/04/17 05:30:59;;;;;;;10.10;2.00;;;;;;;20.86;50.64;100048.36;2334718;75;50732;-78
2024/04/17 05:34:01;;;;;;;14.80;1.92;;;;;;;20.89;50.77;100051.95;2260025;76;50669;-79
2024/04/17 05:37:03;;;;;;;16.07;2.37;;;;;;;20.88;50.66;100052.97;2300509;75;51504;-78
2024/04/17 05:40:07;;;;;;;13.48;2.12;;;;;;;20.87;50.64;100060.75;2276525;75;51054;-78
2024/04/17 05:43:09;;;;;;;13.32;2.05;;;;;;;20.87;50.61;100066.12;2291262;76;50228;-78
2024/04/17 05:46:12;;;;;;;42.05;4.28;;;;;;;20.85;50.57;100064.16;2269058;75;50096;-79
2024/04/17 05:49:14;;;;;;;25.35;3.92;;;;;;;20.87;50.35;100068.81;2306067;76;51757;-79
2024/04/17 05:52:17;;;;;;;20.77;2.75;;;;;;;20.87;50.18;100075.54;2306479;76;51566;-78
2024/04/17 05:55:19;;;;;;;11.70;2.75;;;;;;;20.87;50.35;100070.16;2318158;76;50912;-78
2024/04/17 05:58:21;;;;;;;16.85;2.42;;;;;;;20.88;50.30;100075.83;2318163;75;52462;-78
2024/04/17 06:01:26;;;;;;;17.20;2.87;;;;;;;20.88;50.42;100078.52;2318177;76;52318;-77
2024/04/17 06:04:29;;;;;;;23.42;2.90;;;;;;;20.87;50.39;100075.54;2318218;75;22327;-78
2024/04/17 06:07:31;;;;;;;16.55;3.65;;;;;;;20.88;50.29;100075.83;2328882;75;25227;-78
2024/04/17 06:10:33;;;;;;;18.12;2.33;;;;;;;20.87;50.13;100074.19;2358295;75;50721;-78
2024/04/17 06:13:35;;;;;;;9.58;2.65;;;;;;;20.85;50.09;100081.11;2284164;75;51130;-76
2024/04/17 06:16:38;;;;;;;15.55;2.98;;;;;;;20.89;50.10;100082.88;2295212;75;50388;-76
2024/04/17 06:19:40;;;;;;;13.15;2.55;;;;;;;20.88;49.97;100085.25;2289051;75;50353;-76
2024/04/17 06:22:42;;;;;;;14.10;2.37;;;;;;;20.87;49.87;100084.95;2264704;76;51826;-77
2024/04/17 06:25:46;;;;;;;19.20;3.15;;;;;;;20.85;49.85;100081.11;2296941;76;52025;-77
2024/04/17 06:28:49;;;;;;;12.07;2.45;;;;;;;20.86;49.79;100080.09;2297477;76;50776;-76
2024/04/17 06:31:51;;;;;;;17.45;3.02;;;;;;;20.84;49.78;100084.03;2296537;76;51421;-77
2024/04/17 06:34:54;;;;;;;14.07;2.62;;;;;;;20.84;49.75;100081.34;2281497;75;50414;-76
2024/04/17 06:37:56;;;;;;;13.95;2.50;;;;;;;20.84;49.67;100082.69;2301958;75;52331;-76
2024/04/17 06:40:58;;;;;;;12.37;2.60;;;;;;;20.84;49.64;100094.79;2317762;75;52237;-76
2024/04/17 06:44:00;;;;;;;13.80;2.87;;;;;;;20.84;49.63;100092.10;2318224;75;50529;-78
2024/04/17 06:47:02;;;;;;;17.92;2.70;;;;;;;20.84;49.61;100096.14;2262305;76;50024;-77
2024/04/17 06:50:05;;;;;;;10.30;2.30;;;;;;;20.84;49.59;100100.17;2296087;76;51492;-77
2024/04/17 06:53:07;;;;;;;15.80;2.62;;;;;;;20.84;49.61;100100.17;2276735;76;50088;-77
2024/04/17 06:56:10;;;;;;;15.98;2.77;;;;;;;20.83;49.54;100096.66;2275813;76;49578;-76
2024/04/17 06:59:12;;;;;;;12.95;2.47;;;;;;;20.82;49.52;100099.55;2291996;76;51519;-77
2024/04/17 07:02:14;;;;;;;15.48;2.22;;;;;;;20.82;49.52;100098.20;2301733;76;50396;-77
2024/04/17 07:05:16;;;;;;;8.65;2.02;;;;;;;20.82;49.44;100092.83;2294994;76;50348;-77
2024/04/17 07:08:18;;;;;;;10.35;2.67;;;;;;;20.82;49.49;100107.09;2274130;76;49779;-77
2024/04/17 07:11:21;;;;;;;11.80;2.35;;;;;;;20.81;49.45;100092.01;2299215;75;49589;-76
2024/04/17 07:14:23;;;;;;;8.93;2.22;;;;;;;20.82;49.43;100095.52;2288136;76;50828;-76
2024/04/17 07:17:25;;;;;;;10.18;2.80;;;;;;;20.83;49.48;100103.88;2286723;76;50706;-76
2024/04/17 07:20:28;;;;;;;9.95;2.20;;;;;;;20.82;49.43;100100.89;2263873;76;51000;-77
2024/04/17 07:23:31;;;;;;;9.65;2.70;;;;;;;20.82;49.35;100094.17;2287724;76;50802;-77
2024/04/17 07:26:34;;;;;;;5.75;1.65;;;;;;;20.81;49.30;100088.50;2290658;75;50306;-77
2024/04/17 07:29:36;;;;;;;8.45;1.90;;;;;;;20.81;49.26;100093.88;2291951;76;50328;-77
2024/04/17 07:32:38;;;;;;;7.70;2.25;;;;;;;20.81;49.24;100090.66;2286931;76;50619;-76
2024/04/17 07:35:40;;;;;;;8.85;1.90;;;;;;;20.80;49.25;100094.37;2293830;75;50031;-77
2024/04/17 07:38:45;;;;;;;11.83;2.52;;;;;;;20.81;49.19;100094.70;2285827;76;50822;-77
2024/04/17 07:41:47;;;;;;;7.60;2.37;;;;;;;20.83;49.09;100095.81;2290221;76;50391;-76
2024/04/17 07:44:49;;;;;;;6.50;1.85;;;;;;;20.83;49.09;100095.81;2301425;76;50967;-76
2024/04/17 07:47:52;;;;;;;6.25;1.65;;;;;;;20.81;49.01;100088.50;2289636;76;50724;-76
2024/04/17 07:50:54;;;;;;;5.83;1.80;;;;;;;20.82;49.06;100096.86;2318065;75;51604;-76
2024/04/17 07:53:56;;;;;;;9.13;2.10;;;;;;;20.83;49.03;100101.19;2306185;76;51480;-76
2024/04/17 07:56:58;;;;;;;7.87;2.20;;;;;;;20.81;49.01;100097.91;2318045;76;50232;-76
2024/04/17 08:00:00;;;;;;;11.53;2.00;;;;;;;20.80;48.89;100101.61;2280434;76;51415;-77
2024/04/17 08:03:03;;;;;;;4.17;1.67;;;;;;;20.81;49.01;100103.29;2318060;75;50724;-76
2024/04/17 08:06:05;;;;;;;6.95;1.62;;;;;;;20.82;49.02;100103.06;2306028;76;51414;-77
2024/04/17 08:09:08;;;;;;;4.45;1.75;;;;;;;20.81;48.97;100103.29;2255661;76;51250;-77
2024/04/17 08:12:10;;;;;;;10.23;2.20;;;;;;;20.82;48.95;100110.30;2318104;76;51624;-77
2024/04/17 08:15:20;;;;;;;6.53;1.70;;;;;;;20.82;48.94;100100.89;2317882;76;50363;-76
2024/04/17 08:18:19;;;;;;;4.70;1.60;;;;;;;20.84;48.94;100112.27;2305696;76;22326;-76
2024/04/17 08:21:21;;;;;;;7.37;1.57;;;;;;;20.83;48.96;100112.80;2318232;76;52228;-76
2024/04/17 08:24:23;;;;;;;4.42;1.77;;;;;;;20.81;49.00;100111.35;2286106;76;50536;-76
2024/04/17 08:27:26;;;;;;;6.78;1.70;;;;;;;20.83;48.93;100107.41;2317879;76;50050;-76
2024/04/17 08:30:28;;;;;;;5.83;1.80;;;;;;;20.83;48.89;100105.22;2318217;76;50327;-77
2024/04/17 08:33:30;;;;;;;4.62;1.67;;;;;;;20.83;48.93;100112.80;2280327;76;50087;-77
2024/04/17 08:36:32;;;;;;;6.05;1.80;;;;;;;20.83;48.98;100117.32;2280052;76;50375;-77
2024/04/17 08:39:34;;;;;;;7.60;1.60;;;;;;;20.82;48.99;100115.16;2318192;76;50643;-77
2024/04/17 08:42:37;;;;;;;4.03;1.50;;;;;;;20.82;48.95;100112.47;2318167;76;51535;-76
2024/04/17 08:45:39;;;;;;;6.40;1.40;;;;;;;20.83;48.91;100122.20;2318021;76;50799;-79
2024/04/17 08:48:41;;;;;;;4.58;1.72;;;;;;;20.84;48.91;100121.16;2286187;76;53100;-78
2024/04/17 08:51:44;;;;;;;5.33;1.62;;;;;;;20.85;48.89;100117.94;2318057;76;51636;-78
2024/04/17 08:54:46;;;;;;;5.45;1.82;;;;;;;20.86;48.82;100115.58;2318303;76;50376;-77
2024/04/17 08:57:48;;;;;;;3.50;1.30;;;;;;;20.86;48.82;100119.61;2285863;76;50187;-79
2024/04/17 09:00:51;;;;;;;7.92;1.60;;;;;;;20.84;48.78;100118.99;2318195;76;51684;-78
2024/04/17 09:03:53;;;;;;;5.22;1.60;;;;;;;20.85;48.76;100122.80;2318117;76;51549;-78
2024/04/17 09:06:55;;;;;;;7.15;1.45;;;;;;;20.82;48.73;100112.99;2317913;76;50338;-78
2024/04/17 09:09:57;;;;;;;2.90;1.35;;;;;;;20.83;48.73;100111.94;2318152;76;51689;-77
2024/04/17 09:13:00;;;;;;;6.15;1.82;;;;;;;20.82;48.70;100117.03;2286368;76;51009;-77
2024/04/17 09:16:02;;;;;;;4.62;1.57;;;;;;;20.82;48.74;100115.68;2317808;76;51520;-77
2024/04/17 09:19:04;;;;;;;3.58;1.40;;;;;;;20.81;48.70;100115.39;2305898;76;50323;-77
2024/04/17 09:22:06;;;;;;;3.83;1.62;;;;;;;20.81;48.71;100116.73;2286390;76;49635;-77
2024/04/17 09:25:17;;;;;;;5.58;1.40;;;;;;;20.81;48.70;100120.77;2317923;76;50702;-77
2024/04/17 09:28:20;;;;;;;5.67;2.17;;;;;;;20.80;48.68;100116.41;2318042;76;50433;-77
2024/04/17 09:31:22;;;;;;;3.75;1.30;;;;;;;20.79;48.65;100112.08;2280529;76;50414;-77
2024/04/17 09:34:24;;;;;;;9.23;1.60;;;;;;;20.79;48.68;100116.11;2317917;76;50467;-77
2024/04/17 09:37:26;;;;;;;4.62;1.40;;;;;;;20.82;48.51;100115.68;2279797;76;51848;-76
2024/04/17 09:40:30;;;;;;;3.58;1.27;;;;;;;20.84;48.49;100113.09;2305827;76;50384;-76
2024/04/17 09:43:32;;;;;;;4.30;1.25;;;;;;;20.89;48.39;100120.53;2317846;76;50554;-77
2024/04/17 09:46:34;;;;;;;3.75;1.20;;;;;;;20.91;48.23;100109.05;2280018;76;52764;-77
2024/04/17 09:49:38;;;;;;;5.12;1.82;;;;;;;20.91;48.08;100115.77;2317852;76;51559;-78
2024/04/17 09:52:41;;;;;;;2.20;1.10;;;;;;;20.92;47.95;100109.88;2280150;76;51576;-77
2024/04/17 09:55:43;;;;;;;3.87;1.20;;;;;;;20.89;48.12;100108.42;2317697;76;51625;-77
2024/04/17 09:58:46;;;;;;;2.40;1.10;;;;;;;20.90;48.20;100099.84;2317959;76;51466;-78
2024/04/17 10:01:49;;;;;;;2.47;1.27;;;;;;;20.92;48.18;100104.48;2260174;78;50071;-77
2024/04/17 10:04:51;;;;;;;4.33;1.47;;;;;;;20.92;48.11;100103.14;2248045;78;50354;-78
2024/04/17 10:07:53;;;;;;;2.30;1.22;;;;;;;20.92;48.21;100097.24;2271294;78;50293;-78
2024/04/17 10:10:55;;;;;;;3.47;1.15;;;;;;;20.91;48.34;100098.30;2248334;78;50190;-78
2024/04/17 10:13:58;;;;;;;3.87;1.20;;;;;;;20.90;48.46;100092.59;2271443;78;50460;-78
2024/04/17 10:17:00;;;;;;;3.20;1.30;;;;;;;20.91;48.46;100098.30;2271196;78;50738;-78
2024/04/17 10:20:02;;;;;;;4.12;1.20;;;;;;;20.90;48.41;100096.62;2271344;78;51523;-78
2024/04/17 10:23:06;;;;;;;3.37;0.98;;;;;;;20.90;48.43;100097.97;2273190;78;50637;-78
2024/04/17 10:26:11;;;;;;;6.42;1.37;;;;;;;20.91;48.38;100097.44;2272961;77;51757;-77
2024/04/17 10:29:26;;;;;;;3.75;1.22;;;;;;;20.88;48.42;100098.69;2271461;78;50391;-77
2024/04/17 10:32:31;;;;;;;4.20;1.20;;;;;;;20.92;48.38;100087.83;2271732;78;50455;-77
2024/04/17 10:35:33;;;;;;;;;;;;;;;20.93;48.01;100082.75;2250610;78;50507;-77
2024/04/17 10:38:35;;;;;;;3.22;1.35;;;;;;;20.91;48.14;100082.16;2271645;78;50736;-78
2024/04/17 10:41:38;;;;;;;1.95;1.00;;;;;;;20.94;47.98;100076.34;2273496;77;50294;-77
2024/04/17 10:44:48;;;;;;;3.20;0.98;;;;;;;20.94;47.88;100084.41;2247897;78;49319;-77
2024/04/17 10:47:50;;;;;;;2.10;1.15;;;;;;;20.93;47.77;100081.40;2271320;78;50309;-77
2024/04/17 10:50:53;;;;;;;3.58;1.00;;;;;;;20.94;47.99;100083.59;2273073;78;51579;-77
2024/04/17 10:53:55;;;;;;;3.65;1.20;;;;;;;20.90;48.08;100080.48;2271614;78;50322;-78
2024/04/17 10:56:58;;;;;;;4.30;1.30;;;;;;;20.92;48.07;100078.94;2271418;78;50687;-78
2024/04/17 11:00:00;;;;;;;3.90;1.32;;;;;;;20.91;48.10;100079.47;2247737;78;52676;-77
2024/04/17 11:03:02;;;;;;;2.52;1.20;;;;;;;20.92;48.16;100080.29;2271741;78;50712;-76
2024/04/17 11:06:05;;;;;;;1.67;1.00;;;;;;;20.91;48.11;100075.44;2271298;78;51478;-77
2024/04/17 11:09:07;;;;;;;2.30;1.22;;;;;;;20.91;48.10;100078.62;2273175;78;52677;-76
2024/04/17 11:12:19;;;;;;;1.77;1.02;;;;;;;20.91;48.08;100075.44;2308792;76;51611;-77
2024/04/17 11:15:22;;;;;;;4.25;1.20;;;;;;;20.92;48.08;100077.07;2305700;76;50759;-76
2024/04/17 11:18:24;;;;;;;2.40;1.10;;;;;;;20.94;48.02;100076.34;2318154;76;51670;-76
2024/04/17 11:21:26;;;;;;;3.62;1.00;;;;;;;20.94;47.83;100076.34;2318199;76;51510;-77
2024/04/17 11:24:28;;;;;;;3.15;1.00;;;;;;;20.95;47.66;100074.48;2261281;77;49602;-77
2024/04/17 11:27:30;;;;;;;2.52;1.00;;;;;;;20.99;47.26;100066.27;2271338;78;50469;-76
2024/04/17 11:30:33;;;;;;;3.47;1.10;;;;;;;20.97;47.03;100073.23;2271523;78;50694;-77
2024/04/17 11:33:35;;;;;;;4.75;1.10;;;;;;;20.98;46.92;100077.55;2200017;78;51277;-77
2024/04/17 11:36:37;;;;;;;1.60;0.85;;;;;;;20.98;46.84;100061.95;2271285;78;50623;-76
2024/04/17 11:39:39;;;;;;;2.22;1.07;;;;;;;20.98;46.77;100068.14;2248199;78;51481;-76
2024/04/17 11:42:42;;;;;;;3.58;1.15;;;;;;;21.02;46.73;100064.52;2224120;78;50398;-76
2024/04/17 11:45:44;;;;;;;1.62;1.10;;;;;;;21.02;46.15;100064.00;2271137;78;51613;-76
2024/04/17 11:48:46;;;;;;;2.80;1.00;;;;;;;21.04;46.00;100063.27;2247812;78;52544;-76
2024/04/17 11:51:48;;;;;;;1.47;0.93;;;;;;;21.07;45.68;100060.15;2271458;78;50474;-77
2024/04/17 11:54:51;;;;;;;1.22;0.80;;;;;;;21.06;45.79;100065.20;2271497;78;51534;-77
2024/04/17 11:57:53;;;;;;;1.50;0.90;;;;;;;21.04;46.32;100065.11;2247630;78;51299;-77
2024/04/17 12:00:55;;;;;;;3.22;1.02;;;;;;;21.03;46.26;100061.60;2271383;78;51518;-77
2024/04/17 12:03:59;;;;;;;1.92;1.10;;;;;;;21.03;45.88;100058.91;2271347;78;50728;-77
2024/04/17 12:07:01;;;;;;;4.33;0.80;;;;;;;21.06;45.99;100067.08;2271216;78;51526;-77
2024/04/17 12:10:04;;;;;;;2.10;1.00;;;;;;;21.05;46.08;100061.41;2271465;78;51512;-77
2024/04/17 12:13:06;;;;;;;0.95;0.70;;;;;;;21.07;45.85;100055.30;2247949;78;51087;-77
2024/04/17 12:16:09;;;;;;;3.75;1.00;;;;;;;21.08;45.71;100063.66;2271292;76;51590;-77
2024/04/17 12:19:11;;;;;;;1.82;0.90;;;;;;;21.10;44.95;100058.38;2271333;78;50704;-77
2024/04/17 12:22:13;;;;;;;2.08;1.17;;;;;;;21.14;44.85;100055.25;2247986;78;49653;-76
2024/04/17 12:28:36;;;;;;;1.90;0.90;;;;;;;21.17;44.33;100058.84;2252053;78;23097;-76
2024/04/17 12:31:38;;;;;;;2.15;1.10;;;;;;;21.18;44.21;100065.90;2271304;78;50681;-77
2024/04/17 12:34:40;;;;;;;0.93;0.55;;;;;;;21.18;44.34;100061.34;2248067;78;51511;-77
2024/04/17 12:37:42;;;;;;;2.92;1.10;;;;;;;21.19;44.33;100067.02;2272821;78;51081;-76
2024/04/17 12:40:44;;;;;;;1.10;0.60;;;;;;;21.20;44.11;100059.79;2316664;76;51575;-76
2024/04/17 12:43:47;;;;;;;1.47;0.80;;;;;;;21.20;43.94;100059.79;2279806;76;51295;-77
2024/04/17 12:46:49;;;;;;;1.90;0.80;;;;;;;21.18;44.35;100057.30;2285862;76;51052;-77
2024/04/17 12:49:51;;;;;;;2.42;0.82;;;;;;;21.20;44.24;100059.27;2305821;76;51596;-77
2024/04/17 12:52:53;;;;;;;3.83;0.90;;;;;;;21.18;44.53;100061.86;2287386;76;51487;-77
2024/04/17 12:55:57;;;;;;;2.55;0.80;;;;;;;21.17;45.57;100061.53;2272728;78;50116;-77
2024/04/17 12:59:00;;;;;;;3.70;1.25;;;;;;;21.15;45.91;100059.61;2248212;78;50696;-77
2024/04/17 13:02:02;;;;;;;6.50;1.20;;;;;;;21.20;46.81;100068.68;2247979;78;51907;-76
2024/04/17 13:05:07;;;;;;;8.33;1.22;;;;;;;21.24;46.82;100065.84;2272904;78;50728;-77
2024/04/17 13:08:09;;;;;;;12.58;1.92;;;;;;;21.28;46.96;100059.01;2339887;75;50436;-77
2024/04/17 13:11:11;;;;;;;12.70;2.35;;;;;;;21.34;47.13;100065.39;2327502;75;50095;-77
2024/04/17 13:14:14;;;;;;;13.40;3.35;;;;;;;21.37;47.15;100059.57;2307688;75;50795;-77
2024/04/17 13:17:16;;;;;;;15.53;2.72;;;;;;;21.47;47.87;100058.61;2342919;75;51470;-76
2024/04/17 13:20:19;;;;;;;14.23;3.33;;;;;;;21.48;47.63;100064.84;2318215;75;50320;-76
2024/04/17 13:23:21;;;;;;;17.35;2.45;;;;;;;21.47;47.49;100069.38;2335821;75;50341;-76
2024/04/17 13:26:23;;;;;;;11.68;2.40;;;;;;;21.49;47.28;100064.61;2294089;75;50094;-77
2024/04/17 13:29:25;;;;;;;15.53;2.08;;;;;;;21.49;47.14;100068.64;2322678;75;51530;-76
2024/04/17 13:32:27;;;;;;;14.87;2.80;;;;;;;21.52;46.88;100066.86;2327211;75;51468;-77
2024/04/17 13:35:29;;;;;;;9.73;2.08;;;;;;;21.52;46.90;100081.67;2295782;74;51233;-77
2024/04/17 13:38:32;;;;;;;13.93;2.20;;;;;;;21.52;46.73;100069.55;2341930;75;50155;-76
2024/04/17 13:41:34;;;;;;;8.28;2.08;;;;;;;21.56;46.53;100073.19;2325668;75;50634;-76
2024/04/17 13:44:36;;;;;;;7.55;1.72;;;;;;;21.55;46.55;100072.86;2322712;75;51405;-75
2024/04/17 13:47:38;;;;;;;15.25;2.35;;;;;;;21.47;46.67;100078.80;2311918;75;50775;-76
2024/04/17 13:50:41;;;;;;;8.50;1.87;;;;;;;21.45;46.47;100084.09;2310091;75;51481;-76
2024/04/17 13:53:44;;;;;;;10.82;1.75;;;;;;;21.42;46.52;100083.19;2309857;75;50188;-76
2024/04/17 13:56:46;;;;;;;7.62;1.55;;;;;;;21.41;46.39;100081.02;2336068;75;51605;-76
2024/04/17 13:59:48;;;;;;;6.53;1.70;;;;;;;21.38;46.50;100081.45;2297167;75;51062;-76
2024/04/17 14:02:53;;;;;;;9.80;1.90;;;;;;;21.38;46.53;100080.11;2335218;75;52444;-77
2024/04/17 14:05:54;;;;;;;8.93;1.77;;;;;;;21.36;46.56;100088.88;2328050;75;22388;-77
2024/04/17 14:08:57;;;;;;;10.48;1.80;;;;;;;21.34;46.65;100091.48;2341235;75;51479;-77
2024/04/17 14:11:59;;;;;;;9.68;1.82;;;;;;;21.33;46.66;100089.84;2322801;75;51538;-76
2024/04/17 14:15:01;;;;;;;9.33;1.62;;;;;;;21.34;46.69;100094.17;2306150;75;51101;-77